Time;durP1;ratioP1;P1;durP2;ratioP2;P2;SDS_P1;SDS_P2;PMS_P1;PMS_P2;Temp;Humidity;BMP_temperature;BMP_pressure;BME280_temperature;BME280_humidity;BME280_pressure;Samples;Min_cycle;Max_cycle;Signal;HPM_P1;HPM_P2
2022/06/01 00:00:47;;;;;;;6.00;4.22;;;14.10;95.10;;;;;;5027687;28;20059;-70
2022/06/01 00:03:13;;;;;;;3.95;3.60;;;14.10;95.00;;;;;;5029201;28;20038;-70
2022/06/01 00:05:39;;;;;;;5.03;3.75;;;14.10;95.00;;;;;;5019693;28;20029;-70
2022/06/01 00:08:06;;;;;;;5.40;4.30;;;14.10;95.00;;;;;;5022935;28;20057;-70
2022/06/01 00:10:32;;;;;;;5.72;3.90;;;14.10;94.90;;;;;;5026175;28;20040;-70
2022/06/01 00:12:58;;;;;;;6.03;4.22;;;14.10;95.00;;;;;;5032103;28;20918;-70
2022/06/01 00:15:25;;;;;;;6.38;4.05;;;14.10;95.40;;;;;;5029192;28;20037;-70
2022/06/01 00:17:51;;;;;;;4.70;4.05;;;14.10;95.20;;;;;;5032987;28;20060;-70
2022/06/01 00:20:17;;;;;;;6.93;4.43;;;14.10;95.30;;;;;;5026762;28;20030;-70
2022/06/01 00:22:44;;;;;;;3.70;3.40;;;14.10;95.30;;;;;;5021441;28;20030;-70
2022/06/01 00:25:11;;;;;;;4.47;3.60;;;14.10;95.30;;;;;;5024416;28;20451;-70
2022/06/01 00:27:37;;;;;;;4.40;4.00;;;14.10;95.30;;;;;;5027186;28;20110;-70
2022/06/01 00:30:10;;;;;;;6.22;3.90;;;14.10;95.30;;;;;;5028813;28;20122;-70
2022/06/01 00:32:36;;;;;;;4.78;4.03;;;14.10;95.30;;;;;;5026932;28;20029;-70
2022/06/01 00:35:03;;;;;;;4.97;3.50;;;14.10;95.20;;;;;;5028130;28;20134;-70
2022/06/01 00:37:29;;;;;;;4.55;3.78;;;14.10;95.20;;;;;;5028879;28;20425;-70
2022/06/01 00:39:56;;;;;;;5.03;4.07;;;14.10;95.30;;;;;;5024654;28;20102;-70
2022/06/01 00:42:25;;;;;;;4.35;3.75;;;14.10;95.20;;;;;;5032318;28;20344;-70
2022/06/01 00:44:52;;;;;;;4.70;4.05;;;14.10;95.30;;;;;;5031605;28;20038;-70
2022/06/01 00:47:22;;;;;;;4.13;3.72;;;14.10;95.30;;;;;;5031686;28;20169;-70
2022/06/01 00:49:56;;;;;;;4.35;3.88;;;14.10;95.40;;;;;;5028820;28;20437;-70
2022/06/01 00:52:35;;;;;;;6.35;4.45;;;14.10;95.40;;;;;;5023091;28;20056;-70
2022/06/01 00:55:28;;;;;;;4.40;4.00;;;14.10;95.40;;;;;;5025093;28;20128;-70
2022/06/01 00:57:58;;;;;;;5.28;3.92;;;14.10;95.40;;;;;;5029174;28;20045;-70
2022/06/01 01:00:28;;;;;;;4.22;3.80;;;14.10;95.40;;;;;;5032391;28;20033;-70
2022/06/01 01:02:56;;;;;;;4.40;3.70;;;14.10;95.40;;;;;;5031924;28;20115;-70
2022/06/01 01:05:23;;;;;;;7.45;3.60;;;14.10;95.40;;;;;;5029275;28;20026;-70
2022/06/01 01:07:51;;;;;;;4.35;3.72;;;14.10;95.40;;;;;;5025322;28;20117;-70
2022/06/01 01:10:17;;;;;;;3.90;3.58;;;14.10;95.40;;;;;;5027921;28;20025;-70
2022/06/01 01:12:56;;;;;;;5.03;3.85;;;14.00;95.30;;;;;;5030444;28;20433;-70
2022/06/01 01:15:24;;;;;;;3.78;3.47;;;14.00;95.60;;;;;;5030867;28;20064;-70
2022/06/01 01:17:52;;;;;;;5.43;3.85;;;14.00;95.20;;;;;;5031995;28;20432;-70
2022/06/01 01:20:19;;;;;;;4.30;3.72;;;14.00;95.20;;;;;;5030707;28;20094;-70
2022/06/01 01:23:11;;;;;;;4.22;3.67;;;14.00;95.20;;;;;;5026086;28;20025;-70
2022/06/01 01:25:38;;;;;;;4.82;4.10;;;14.00;95.20;;;;;;5022679;28;20029;-69
2022/06/01 01:28:06;;;;;;;6.60;3.33;;;14.00;95.10;;;;;;5032528;28;20025;-70
2022/06/01 01:30:38;;;;;;;6.90;3.72;;;13.90;95.20;;;;;;5033362;28;20061;-70
2022/06/01 01:33:13;;;;;;;6.32;4.43;;;13.90;95.30;;;;;;5031323;28;20030;-70
2022/06/01 01:35:41;;;;;;;4.95;4.03;;;14.00;95.40;;;;;;5035228;28;20136;-70
2022/06/01 01:38:14;;;;;;;4.68;3.83;;;14.00;95.30;;;;;;5025577;28;20029;-70
2022/06/01 01:40:40;;;;;;;3.60;3.20;;;13.90;95.20;;;;;;5025271;28;20095;-70
2022/06/01 01:43:07;;;;;;;5.13;3.75;;;13.90;95.20;;;;;;5024531;28;20041;-70
2022/06/01 01:45:36;;;;;;;4.55;3.83;;;13.90;95.20;;;;;;5033026;28;20035;-69
2022/06/01 01:48:02;;;;;;;6.53;4.78;;;14.00;95.20;;;;;;5030281;28;20807;-70
2022/06/01 01:50:28;;;;;;;6.05;4.18;;;13.90;95.30;;;;;;5033673;28;20037;-70
2022/06/01 01:52:53;;;;;;;5.38;4.53;;;13.90;95.40;;;;;;5031542;28;20033;-70
2022/06/01 01:55:30;;;;;;;4.72;3.88;;;13.90;95.30;;;;;;5023949;28;20060;-70
2022/06/01 01:58:34;;;;;;;6.43;4.53;;;13.90;95.40;;;;;;5026959;28;20358;-70
2022/06/01 02:01:14;;;;;;;5.53;4.07;;;13.90;95.50;;;;;;5027643;28;20041;-70
2022/06/01 02:03:46;;;;;;;5.60;3.85;;;13.90;95.50;;;;;;5034178;28;20035;-70
2022/06/01 02:06:28;;;;;;;4.25;3.85;;;13.90;95.60;;;;;;5031481;28;20029;-69
2022/06/01 02:09:03;;;;;;;5.28;4.55;;;13.90;95.70;;;;;;5030902;28;20120;-70
2022/06/01 02:14:38;;;;;;;6.00;4.28;;;13.90;95.60;;;;;;5026990;28;20045;-69
2022/06/01 02:17:09;;;;;;;4.70;4.30;;;13.80;95.50;;;;;;5028857;28;20652;-69
2022/06/01 02:19:50;;;;;;;4.90;4.18;;;13.70;95.50;;;;;;5027401;28;20038;-70
2022/06/01 02:22:16;;;;;;;5.22;4.45;;;13.70;95.60;;;;;;5025911;28;20033;-70
2022/06/01 02:24:43;;;;;;;5.10;4.60;;;13.60;95.60;;;;;;5036505;28;20021;-69
2022/06/01 02:27:11;;;;;;;4.97;4.47;;;13.60;95.60;;;;;;5018121;28;20088;-69
2022/06/01 02:29:39;;;;;;;5.13;4.47;;;13.50;95.60;;;;;;5019460;28;20060;-69
2022/06/01 02:32:06;;;;;;;6.53;4.63;;;13.50;95.70;;;;;;5024666;28;20442;-70
2022/06/01 02:34:33;;;;;;;5.03;4.20;;;13.40;95.70;;;;;;5029419;28;20048;-70
2022/06/01 02:37:04;;;;;;;4.82;4.32;;;13.40;95.80;;;;;;5028208;28;20072;-70
2022/06/01 02:39:31;;;;;;;6.50;4.68;;;13.40;96.00;;;;;;5032390;28;20045;-70
2022/06/01 02:42:28;;;;;;;8.05;5.18;;;13.50;96.00;;;;;;5037028;28;20504;-70
2022/06/01 02:45:06;;;;;;;5.90;4.68;;;13.40;96.00;;;;;;5017968;28;20033;-70
2022/06/01 02:47:37;;;;;;;6.25;4.93;;;13.50;96.00;;;;;;5029059;28;20064;-70
2022/06/01 02:50:05;;;;;;;4.78;4.28;;;13.50;96.10;;;;;;5029134;28;20044;-70
2022/06/01 02:52:31;;;;;;;5.68;4.60;;;13.40;96.00;;;;;;5027237;28;20063;-70
2022/06/01 02:54:56;;;;;;;5.82;4.82;;;13.40;95.90;;;;;;5030533;28;20033;-70
2022/06/01 02:57:23;;;;;;;6.05;5.05;;;13.40;95.90;;;;;;5020215;28;20540;-70
2022/06/01 02:59:50;;;;;;;5.65;4.18;;;13.30;96.00;;;;;;5026076;28;20090;-70
2022/06/01 03:02:17;;;;;;;7.85;4.28;;;13.30;95.90;;;;;;5021622;28;20044;-70
2022/06/01 03:04:43;;;;;;;4.65;4.15;;;13.30;95.90;;;;;;5044128;28;20082;-69
2022/06/01 03:07:10;;;;;;;4.68;4.18;;;13.30;95.90;;;;;;5027914;28;20040;-70
2022/06/01 03:09:37;;;;;;;5.13;4.45;;;13.30;95.80;;;;;;5028520;28;20040;-70
2022/06/01 03:12:04;;;;;;;5.70;4.25;;;13.30;95.70;;;;;;5030978;28;20413;-70
2022/06/01 03:14:30;;;;;;;4.28;3.88;;;13.30;95.70;;;;;;5013932;28;20057;-69
2022/06/01 03:16:57;;;;;;;4.80;3.63;;;13.30;95.60;;;;;;5021478;28;20174;-70
2022/06/01 03:19:23;;;;;;;6.03;3.83;;;13.20;95.50;;;;;;5022756;28;20179;-70
2022/06/01 03:21:49;;;;;;;3.88;3.58;;;13.10;95.30;;;;;;5028905;28;20034;-70
2022/06/01 03:24:15;;;;;;;3.92;3.53;;;13.10;95.10;;;;;;5025962;28;20033;-70
2022/06/01 03:26:42;;;;;;;5.75;3.58;;;13.00;95.00;;;;;;5029498;28;20078;-70
2022/06/01 03:29:08;;;;;;;4.00;3.60;;;12.90;95.00;;;;;;5031025;28;20037;-70
2022/06/01 03:31:33;;;;;;;6.07;4.25;;;12.80;94.90;;;;;;5022911;28;20536;-70
2022/06/01 03:34:00;;;;;;;4.03;3.55;;;12.80;94.90;;;;;;5025697;28;20071;-69
2022/06/01 03:36:25;;;;;;;3.75;3.40;;;12.70;94.90;;;;;;5026211;28;20695;-69
2022/06/01 03:38:51;;;;;;;4.55;3.83;;;12.70;95.00;;;;;;5026976;28;20120;-70
2022/06/01 03:41:17;;;;;;;11.63;4.32;;;12.60;95.10;;;;;;5045114;28;20037;-69
2022/06/01 03:46:30;;;;;;;4.57;4.13;;;12.50;95.00;;;;;;5014655;28;20037;-70
2022/06/01 03:48:56;;;;;;;5.88;4.38;;;12.60;95.10;;;;;;5017447;28;20029;-69
2022/06/01 03:51:24;;;;;;;5.13;4.50;;;12.50;95.00;;;;;;5022954;28;20075;-69
2022/06/01 03:53:50;;;;;;;4.93;4.40;;;12.50;95.00;;;;;;5018649;28;20124;-70
2022/06/01 03:56:16;;;;;;;4.35;3.88;;;12.50;95.00;;;;;;5024882;28;20044;-70
2022/06/01 03:58:42;;;;;;;4.68;4.10;;;12.50;95.00;;;;;;5023601;28;20029;-70
2022/06/01 04:01:07;;;;;;;6.00;4.60;;;12.50;95.00;;;;;;5020750;28;20117;-70
2022/06/01 04:03:33;;;;;;;5.25;4.05;;;12.50;95.00;;;;;;5021593;28;20032;-70
2022/06/01 04:05:59;;;;;;;5.50;4.13;;;12.50;94.90;;;;;;5026018;28;20025;-70
2022/06/01 04:08:25;;;;;;;5.57;4.68;;;12.50;94.90;;;;;;5024785;28;20017;-69
2022/06/01 04:10:51;;;;;;;4.63;4.03;;;12.60;94.70;;;;;;5026228;28;20025;-70
2022/06/01 04:13:16;;;;;;;5.88;3.97;;;12.60;94.60;;;;;;5025078;28;20040;-69
2022/06/01 04:15:43;;;;;;;6.45;4.40;;;12.60;94.60;;;;;;5023815;28;20059;-70
2022/06/01 04:18:09;;;;;;;5.47;4.72;;;12.60;94.50;;;;;;5026981;28;20505;-69
2022/06/01 04:20:35;;;;;;;4.88;4.38;;;12.60;94.30;;;;;;5021644;28;20064;-69
2022/06/01 04:23:01;;;;;;;6.55;4.47;;;12.60;94.30;;;;;;5026670;28;20029;-70
2022/06/01 04:25:28;;;;;;;4.20;3.78;;;12.60;94.30;;;;;;5028419;28;20036;-69
2022/06/01 04:27:56;;;;;;;5.18;4.43;;;12.60;94.30;;;;;;5027342;28;20030;-69
2022/06/01 04:30:21;;;;;;;7.00;4.35;;;12.70;94.30;;;;;;5022006;28;20037;-70
2022/06/01 04:32:51;;;;;;;4.88;4.40;;;12.70;94.40;;;;;;5019644;28;20033;-69
2022/06/01 04:35:18;;;;;;;4.82;4.32;;;12.70;94.40;;;;;;5020360;28;20034;-69
2022/06/01 04:37:44;;;;;;;5.00;4.47;;;12.80;94.40;;;;;;5021055;28;20026;-69
2022/06/01 04:40:12;;;;;;;5.75;4.55;;;12.80;94.50;;;;;;5027710;28;20171;-69
2022/06/01 04:42:39;;;;;;;4.57;4.03;;;12.90;94.50;;;;;;5027074;28;20033;-69
2022/06/01 04:45:06;;;;;;;5.53;4.35;;;12.90;94.40;;;;;;5028211;28;20037;-70
2022/06/01 04:47:32;;;;;;;5.00;4.22;;;12.90;94.30;;;;;;5023722;28;20633;-69
2022/06/01 04:49:58;;;;;;;4.43;3.85;;;13.00;94.30;;;;;;5024388;28;20120;-70
2022/06/01 04:52:24;;;;;;;5.70;3.95;;;13.10;94.30;;;;;;5026248;28;20452;-69
2022/06/01 04:54:49;;;;;;;4.95;4.00;;;13.20;94.20;;;;;;5026505;28;20045;-70
2022/06/01 04:57:15;;;;;;;6.20;4.13;;;13.30;94.10;;;;;;5026574;28;20053;-69
2022/06/01 04:59:41;;;;;;;5.38;4.15;;;13.40;93.90;;;;;;5027223;28;20520;-70
2022/06/01 05:02:07;;;;;;;4.53;4.10;;;13.40;93.60;;;;;;5026188;28;20043;-69
2022/06/01 05:04:32;;;;;;;4.20;3.80;;;13.60;93.00;;;;;;5021362;28;20049;-69
2022/06/01 05:06:58;;;;;;;3.75;3.25;;;13.70;92.70;;;;;;5030172;28;20044;-70
2022/06/01 05:09:25;;;;;;;4.20;3.42;;;13.70;92.30;;;;;;5034287;28;20057;-70
2022/06/01 05:11:51;;;;;;;3.78;3.47;;;13.80;92.10;;;;;;5029489;28;20033;-70
2022/06/01 05:14:16;;;;;;;5.00;3.75;;;13.90;92.20;;;;;;5025041;28;20044;-70
2022/06/01 05:16:42;;;;;;;3.88;3.13;;;14.00;92.10;;;;;;5019539;28;20068;-70
2022/06/01 05:19:08;;;;;;;5.60;3.80;;;14.20;92.10;;;;;;5019979;28;20207;-70
2022/06/01 05:21:34;;;;;;;3.40;3.10;;;14.30;91.80;;;;;;5027663;28;20146;-69
2022/06/01 05:24:00;;;;;;;3.47;3.03;;;14.50;91.80;;;;;;5028731;28;20473;-70
2022/06/01 05:26:25;;;;;;;3.47;2.97;;;14.70;91.70;;;;;;5028800;28;20041;-69
2022/06/01 05:28:51;;;;;;;3.25;2.67;;;15.30;91.00;;;;;;5045396;28;20466;-70
2022/06/01 05:31:18;;;;;;;3.05;2.75;;;15.50;90.50;;;;;;5033724;28;20564;-70
2022/06/01 05:33:44;;;;;;;3.20;2.90;;;15.50;90.10;;;;;;5027225;28;20746;-69
2022/06/01 05:36:12;;;;;;;3.72;2.65;;;15.50;90.20;;;;;;5024963;28;20047;-70
2022/06/01 05:38:38;;;;;;;2.20;2.00;;;15.40;90.10;;;;;;5008759;28;20044;-70
2022/06/01 05:41:04;;;;;;;2.20;2.00;;;15.40;90.10;;;;;;5030283;28;20033;-70
2022/06/01 05:43:31;;;;;;;2.67;2.15;;;15.50;90.00;;;;;;5032727;28;20064;-69
2022/06/01 05:45:57;;;;;;;2.63;2.30;;;15.60;90.00;;;;;;5029499;28;20030;-70
2022/06/01 05:48:23;;;;;;;2.97;2.20;;;15.80;88.70;;;;;;5027579;28;20943;-69
2022/06/01 05:50:49;;;;;;;3.65;2.10;;;16.10;85.20;;;;;;5024712;28;20060;-70
2022/06/01 05:53:15;;;;;;;2.42;2.20;;;16.30;83.00;;;;;;5022421;28;20485;-69
2022/06/01 05:55:41;;;;;;;4.40;2.20;;;16.50;83.30;;;;;;5024930;28;20048;-69
2022/06/01 05:58:28;;;;;;;2.10;1.90;;;16.70;82.50;;;;;;5032934;28;20033;-70
2022/06/01 06:00:55;;;;;;;2.22;2.03;;;16.90;79.00;;;;;;5028522;28;20040;-70
2022/06/01 06:03:23;;;;;;;2.45;1.95;;;16.90;77.80;;;;;;5030602;28;20041;-70
2022/06/01 06:08:34;;;;;;;2.45;2.20;;;17.30;78.90;;;;;;5021118;28;20065;-70
2022/06/01 06:11:00;;;;;;;3.10;1.70;;;17.60;76.20;;;;;;5031144;28;20148;-70
2022/06/01 06:13:25;;;;;;;3.22;1.83;;;17.70;74.20;;;;;;5035401;28;20041;-69
2022/06/01 06:15:51;;;;;;;1.90;1.70;;;17.90;74.00;;;;;;5026194;28;20105;-70
2022/06/01 06:18:17;;;;;;;2.78;2.50;;;18.00;73.70;;;;;;5046745;28;20475;-70
2022/06/01 06:20:44;;;;;;;4.18;2.35;;;18.00;73.50;;;;;;5024944;28;20033;-70
2022/06/01 06:23:11;;;;;;;1.77;1.67;;;18.00;74.40;;;;;;5020680;28;20044;-70
2022/06/01 06:25:38;;;;;;;2.80;2.35;;;18.00;76.10;;;;;;5021822;28;20025;-71
2022/06/01 06:28:04;;;;;;;2.30;2.10;;;18.10;75.40;;;;;;5026079;28;20041;-71
2022/06/01 06:30:29;;;;;;;2.60;2.20;;;18.20;75.00;;;;;;5026772;28;20036;-70
2022/06/01 06:32:55;;;;;;;3.17;2.17;;;18.40;73.20;;;;;;5023931;28;20453;-70
2022/06/01 06:35:21;;;;;;;4.50;2.42;;;18.60;71.80;;;;;;5032672;28;20021;-71
2022/06/01 06:37:47;;;;;;;2.88;2.22;;;18.80;71.20;;;;;;5025733;28;20083;-71
2022/06/01 06:40:13;;;;;;;3.83;2.88;;;18.80;70.90;;;;;;5026290;28;20025;-71
2022/06/01 06:42:39;;;;;;;3.05;2.30;;;18.90;69.90;;;;;;5024149;28;20033;-71
2022/06/01 06:45:06;;;;;;;5.85;2.40;;;19.10;70.60;;;;;;5026443;28;20095;-69
2022/06/01 06:47:33;;;;;;;3.75;2.47;;;19.20;69.20;;;;;;5027287;28;20118;-73
2022/06/01 06:50:04;;;;;;;3.65;2.28;;;19.40;68.40;;;;;;5027043;28;20038;-73
2022/06/01 06:52:29;;;;;;;2.80;2.53;;;19.50;68.50;;;;;;5026489;28;20171;-72
2022/06/01 06:54:56;;;;;;;3.35;2.33;;;19.50;68.30;;;;;;5031202;28;21040;-70
2022/06/01 06:57:22;;;;;;;2.50;2.13;;;19.60;68.00;;;;;;5030938;28;20029;-70
2022/06/01 06:59:50;;;;;;;5.07;2.72;;;19.70;68.00;;;;;;5027951;28;20025;-71
2022/06/01 07:02:16;;;;;;;5.25;2.60;;;19.80;68.20;;;;;;5025173;28;20816;-71
2022/06/01 07:04:44;;;;;;;3.35;2.65;;;20.00;67.60;;;;;;5040031;28;20116;-72
2022/06/01 07:07:10;;;;;;;3.80;2.50;;;20.10;65.20;;;;;;5027263;28;20028;-72
2022/06/01 07:09:35;;;;;;;2.85;2.13;;;20.20;65.60;;;;;;5021318;28;20532;-72
2022/06/01 07:12:01;;;;;;;3.63;2.85;;;20.20;65.00;;;;;;5019772;28;20123;-73
2022/06/01 07:14:27;;;;;;;5.35;2.75;;;20.20;65.10;;;;;;5028885;28;20034;-72
2022/06/01 07:16:52;;;;;;;7.85;2.90;;;20.50;64.40;;;;;;5025925;28;20037;-68
2022/06/01 07:19:19;;;;;;;4.20;2.42;;;20.80;62.70;;;;;;5042454;28;20560;-70
2022/06/01 07:21:45;;;;;;;3.67;2.00;;;21.20;61.00;;;;;;5029940;28;20464;-70
2022/06/01 07:24:10;;;;;;;2.38;1.80;;;21.50;60.40;;;;;;5026522;28;20025;-69
2022/06/01 07:26:43;;;;;;;2.33;1.63;;;21.70;59.50;;;;;;5021304;28;20106;-68
2022/06/01 07:29:09;;;;;;;2.95;1.60;;;21.90;58.90;;;;;;5020670;28;20044;-73
2022/06/01 07:31:35;;;;;;;4.28;1.67;;;22.10;57.50;;;;;;5028861;28;20034;-72
2022/06/01 07:34:02;;;;;;;3.13;1.50;;;22.10;57.80;;;;;;5030416;28;20099;-71
2022/06/01 07:36:30;;;;;;;2.33;1.50;;;22.00;57.20;;;;;;5028831;28;20068;-71
2022/06/01 07:43:05;;;;;;;1.95;1.38;;;21.80;58.60;;;;;;5024622;28;20021;-66
2022/06/01 07:44:43;;;;;;;4.38;2.28;;;21.90;58.80;;;;;;5022564;28;20499;-71
2022/06/01 07:47:10;;;;;;;2.05;1.88;;;22.00;56.90;;;;;;5028659;28;20033;-71
2022/06/01 07:49:36;;;;;;;2.80;1.98;;;21.70;57.80;;;;;;5021968;28;20026;-71
2022/06/01 07:52:09;;;;;;;1.70;1.60;;;21.50;58.40;;;;;;5031702;28;20066;-71
2022/06/01 07:54:39;;;;;;;4.28;2.25;;;21.40;58.40;;;;;;5022401;28;20072;-71
2022/06/01 07:57:06;;;;;;;2.72;1.92;;;21.30;58.80;;;;;;5022721;28;20048;-68
2022/06/01 07:59:32;;;;;;;2.58;2.17;;;21.20;59.20;;;;;;5019888;28;20389;-76
2022/06/01 08:01:58;;;;;;;2.88;1.90;;;21.30;59.40;;;;;;5032651;28;20038;-72
2022/06/01 08:04:24;;;;;;;2.60;1.77;;;21.40;58.70;;;;;;5025427;28;20056;-71
2022/06/01 08:06:49;;;;;;;5.32;2.00;;;21.40;58.60;;;;;;5028916;28;20029;-71
2022/06/01 08:09:15;;;;;;;2.83;1.90;;;21.60;57.80;;;;;;5021348;28;20038;-71
2022/06/01 08:14:25;;;;;;;4.40;2.17;;;21.70;57.70;;;;;;5020705;28;20037;-71
2022/06/01 08:16:51;;;;;;;3.00;1.77;;;21.60;57.00;;;;;;5021878;28;20041;-71
2022/06/01 08:19:17;;;;;;;4.38;2.30;;;21.40;57.30;;;;;;5026867;28;20153;-71
2022/06/01 08:21:44;;;;;;;2.78;2.13;;;21.30;57.50;;;;;;5027413;28;20051;-71
2022/06/01 08:24:11;;;;;;;3.42;2.20;;;21.20;59.00;;;;;;5029475;28;20040;-71
2022/06/01 08:26:37;;;;;;;2.28;2.05;;;21.10;59.40;;;;;;5026945;28;20044;-69
2022/06/01 08:29:03;;;;;;;4.35;2.25;;;20.90;58.40;;;;;;5023823;28;20037;-70
2022/06/01 08:31:30;;;;;;;3.55;2.45;;;20.70;58.60;;;;;;5021154;28;20033;-71
2022/06/01 08:33:57;;;;;;;4.85;1.90;;;20.70;59.00;;;;;;5025841;28;20035;-72
2022/06/01 08:36:23;;;;;;;3.10;1.85;;;20.70;58.30;;;;;;5022755;28;20033;-71
2022/06/01 08:38:49;;;;;;;3.60;2.58;;;20.70;59.00;;;;;;5029847;28;20076;-71
2022/06/01 08:41:17;;;;;;;3.90;2.20;;;20.80;59.30;;;;;;5026598;28;20038;-71
2022/06/01 08:43:50;;;;;;;2.10;1.70;;;20.90;59.10;;;;;;5020600;28;20037;-72
2022/06/01 08:46:18;;;;;;;4.00;1.98;;;21.00;59.20;;;;;;5017444;28;20113;-71
2022/06/01 08:49:01;;;;;;;3.40;1.85;;;21.10;59.00;;;;;;5023312;28;20141;-72
2022/06/01 08:51:29;;;;;;;4.68;1.75;;;21.10;58.60;;;;;;5032660;28;20128;-72
2022/06/01 08:53:58;;;;;;;5.55;2.05;;;21.20;57.50;;;;;;5027410;28;20032;-65
2022/06/01 08:56:42;;;;;;;2.47;1.98;;;21.30;55.30;;;;;;5026165;28;20436;-72
2022/06/01 08:59:07;;;;;;;3.80;2.40;;;21.20;55.20;;;;;;5027697;28;20041;-73
2022/06/01 09:02:05;;;;;;;4.75;2.35;;;21.10;55.70;;;;;;5022216;28;20507;-72
2022/06/01 09:04:51;;;;;;;3.08;1.70;;;21.20;55.20;;;;;;5023860;28;20463;-73
2022/06/01 09:07:24;;;;;;;3.90;2.78;;;21.20;55.40;;;;;;5030916;28;20029;-73
2022/06/01 09:10:09;;;;;;;4.03;2.95;;;21.30;55.40;;;;;;5029820;28;20028;-73
2022/06/01 09:12:36;;;;;;;4.38;2.83;;;21.50;55.00;;;;;;5033819;28;20041;-73
2022/06/01 09:15:21;;;;;;;3.85;2.90;;;21.70;53.50;;;;;;5024659;28;20048;-72
2022/06/01 09:17:47;;;;;;;2.92;2.63;;;21.60;53.20;;;;;;5036389;28;20113;-73
2022/06/01 09:23:08;;;;;;;4.47;2.78;;;21.60;52.10;;;;;;5033549;28;20045;-73
2022/06/01 09:25:38;;;;;;;3.20;2.80;;;21.60;53.40;;;;;;5031766;28;20029;-72
2022/06/01 09:28:23;;;;;;;7.85;2.85;;;21.50;52.60;;;;;;5029040;28;20052;-72
2022/06/01 09:31:02;;;;;;;2.58;2.38;;;21.30;53.70;;;;;;5026306;28;20459;-72
2022/06/01 09:33:33;;;;;;;3.47;2.50;;;21.40;53.70;;;;;;5020458;28;20382;-72
2022/06/01 09:36:08;;;;;;;4.85;2.72;;;21.70;52.30;;;;;;5037690;28;20220;-72
2022/06/01 09:38:46;;;;;;;3.05;2.63;;;21.90;51.80;;;;;;5025282;28;20503;-71
2022/06/01 09:41:31;;;;;;;5.47;2.60;;;22.00;51.40;;;;;;5031224;28;20033;-70
2022/06/01 09:44:06;;;;;;;3.72;2.83;;;21.90;53.20;;;;;;5022919;28;20021;-70
2022/06/01 09:46:56;;;;;;;4.05;2.78;;;22.00;52.30;;;;;;5028573;28;20468;-71
2022/06/01 09:49:31;;;;;;;3.42;2.63;;;22.00;50.40;;;;;;5026179;28;20037;-69
2022/06/01 09:52:02;;;;;;;5.13;3.10;;;21.90;51.00;;;;;;5026895;28;20079;-69
2022/06/01 09:54:32;;;;;;;5.68;3.22;;;22.00;50.70;;;;;;5025475;28;20609;-69
2022/06/01 09:57:18;;;;;;;2.70;2.50;;;21.90;50.30;;;;;;5029687;28;20120;-70
2022/06/01 10:08:18;;;;;;;5.32;2.13;;;22.80;47.30;;;;;;5022484;28;20029;-70
2022/06/01 10:11:00;;;;;;;3.72;2.38;;;22.90;46.70;;;;;;5028898;28;20025;-71
2022/06/01 10:13:38;;;;;;;2.28;1.92;;;22.80;46.40;;;;;;5028257;28;20026;-70
2022/06/01 10:16:37;;;;;;;4.20;2.30;;;22.60;46.30;;;;;;5025036;28;20029;-71
2022/06/01 10:19:08;;;;;;;3.17;1.83;;;22.40;45.50;;;;;;5022327;28;20068;-70
2022/06/01 10:21:55;;;;;;;11.27;6.05;;;22.20;46.60;;;;;;5024539;28;20033;-70
2022/06/01 10:24:53;;;;;;;12.68;5.55;;;22.40;47.00;;;;;;5028330;28;20039;-70
2022/06/01 10:27:22;;;;;;;2.60;1.92;;;22.50;47.10;;;;;;5025611;28;20114;-70
2022/06/01 10:30:07;;;;;;;3.25;2.28;;;22.50;47.10;;;;;;5027835;28;20039;-71
2022/06/01 10:32:50;;;;;;;3.92;2.30;;;22.40;46.90;;;;;;5026531;28;20040;-70
2022/06/01 10:35:50;;;;;;;3.33;1.90;;;22.00;47.10;;;;;;5022760;28;20111;-70
2022/06/01 10:38:25;;;;;;;2.50;1.75;;;21.90;48.60;;;;;;5028162;28;20358;-70
2022/06/01 10:41:01;;;;;;;3.38;2.00;;;21.90;48.90;;;;;;5024344;28;20025;-70
2022/06/01 10:43:39;;;;;;;2.67;1.90;;;21.90;48.50;;;;;;5027432;28;20040;-70
2022/06/01 10:46:16;;;;;;;2.13;1.92;;;21.70;49.70;;;;;;5029322;28;20067;-70
2022/06/01 10:48:52;;;;;;;10.90;2.30;;;21.60;50.60;;;;;;5022705;28;20086;-70
2022/06/01 10:51:32;;;;;;;3.08;2.10;;;21.70;50.20;;;;;;5028634;28;20045;-69
2022/06/01 10:54:19;;;;;;;3.10;2.17;;;21.90;49.20;;;;;;5035709;28;20099;-70
2022/06/01 10:56:45;;;;;;;4.25;2.47;;;22.40;48.50;;;;;;5024862;28;20064;-72
2022/06/01 10:59:15;;;;;;;4.20;2.17;;;22.80;46.10;;;;;;5028879;28;20718;-71
2022/06/01 11:01:58;;;;;;;4.75;2.70;;;23.20;46.20;;;;;;5025168;28;20046;-71
2022/06/01 11:04:50;;;;;;;5.35;2.08;;;23.80;46.80;;;;;;5024797;28;20040;-74
2022/06/01 11:07:16;;;;;;;2.63;2.22;;;23.60;44.10;;;;;;5021830;28;20120;-73
2022/06/01 11:10:00;;;;;;;2.38;2.00;;;23.50;45.40;;;;;;5017478;28;20036;-73
2022/06/01 11:12:59;;;;;;;5.82;1.85;;;23.30;44.10;;;;;;5020957;28;20052;-73
2022/06/01 11:15:40;;;;;;;4.40;2.35;;;23.00;44.50;;;;;;5027423;28;20116;-73
2022/06/01 11:18:18;;;;;;;3.50;1.95;;;22.70;45.40;;;;;;5025319;28;20049;-73
2022/06/01 11:21:27;;;;;;;3.30;1.65;;;22.70;46.30;;;;;;5023193;28;20067;-74
2022/06/01 11:24:14;;;;;;;2.22;2.00;;;22.60;46.00;;;;;;4981208;28;20141;-74
2022/06/01 11:27:18;;;;;;;4.80;1.92;;;22.30;46.50;;;;;;5022820;28;20040;-74
2022/06/01 11:30:05;;;;;;;2.58;1.52;;;21.90;48.30;;;;;;5026133;28;20135;-73
2022/06/01 11:32:51;;;;;;;3.42;1.70;;;21.70;48.40;;;;;;5026183;28;20607;-74
2022/06/01 11:35:17;;;;;;;;;;;21.70;48.20;;;;;;5027946;28;20144;-74
2022/06/01 11:38:09;;;;;;;1.83;1.50;;;22.00;47.80;;;;;;5028776;28;19991;-74
2022/06/01 11:40:49;;;;;;;1.70;1.55;;;22.20;46.80;;;;;;5023919;28;20041;-73
2022/06/01 11:43:45;;;;;;;3.75;1.40;;;22.30;47.80;;;;;;5030695;28;20060;-74
2022/06/01 11:46:16;;;;;;;1.88;1.42;;;22.20;47.40;;;;;;5028353;28;20040;-73
2022/06/01 11:48:50;;;;;;;1.75;1.33;;;22.00;47.30;;;;;;5028728;28;20040;-73
2022/06/01 11:51:25;;;;;;;2.65;1.30;;;22.10;46.40;;;;;;5028467;28;20033;-73
2022/06/01 11:54:09;;;;;;;1.52;1.20;;;22.30;47.20;;;;;;5029044;28;20380;-73
2022/06/01 11:56:59;;;;;;;2.42;1.27;;;22.60;46.00;;;;;;5019493;28;20036;-74
2022/06/01 11:59:28;;;;;;;1.83;1.38;;;22.80;45.00;;;;;;5031067;28;20649;-73
2022/06/01 12:01:56;;;;;;;1.33;0.90;;;22.70;45.00;;;;;;5024903;28;20041;-74
2022/06/01 12:04:52;;;;;;;4.47;2.35;;;22.70;45.50;;;;;;5025652;28;20463;-73
2022/06/01 12:07:29;;;;;;;4.30;2.90;;;22.60;46.00;;;;;;5026918;28;20084;-73
2022/06/01 12:10:16;;;;;;;1.50;1.00;;;22.30;46.00;;;;;;5029403;28;20028;-74
2022/06/01 12:12:59;;;;;;;0.80;0.80;;;21.80;46.40;;;;;;5021907;28;20033;-73
2022/06/01 12:15:43;;;;;;;1.52;0.70;;;21.30;47.60;;;;;;5028152;28;20040;-73
2022/06/01 12:18:12;;;;;;;2.10;0.88;;;21.00;47.60;;;;;;5026024;28;20064;-76
2022/06/01 12:20:37;;;;;;;1.63;0.75;;;20.80;48.10;;;;;;5028350;28;20481;-76
2022/06/01 12:29:05;;;;;;;1.92;1.10;;;20.90;49.80;;;;;;5022713;28;20030;-76
2022/06/01 12:32:03;;;;;;;2.15;1.33;;;20.80;50.90;;;;;;5031012;28;20054;-76
2022/06/01 12:34:57;;;;;;;4.60;2.20;;;20.50;57.80;;;;;;5026064;28;20456;-76
2022/06/01 12:37:31;;;;;;;5.57;1.67;;;19.70;65.10;;;;;;5030628;28;20842;-76
2022/06/01 12:40:00;;;;;;;4.28;1.83;;;19.10;67.90;;;;;;5025671;28;20036;-76
2022/06/01 12:42:43;;;;;;;8.98;2.40;;;18.50;71.40;;;;;;5029613;28;20022;-76
2022/06/01 12:45:17;;;;;;;5.35;2.17;;;18.00;75.70;;;;;;5020363;28;20565;-76
2022/06/01 12:47:57;;;;;;;6.90;2.45;;;17.90;79.40;;;;;;5035276;28;20755;-76
2022/06/01 12:50:27;;;;;;;5.25;1.85;;;17.70;81.80;;;;;;5029597;28;20044;-76
2022/06/01 12:53:40;;;;;;;6.55;2.47;;;17.90;84.20;;;;;;5031145;28;20412;-76
2022/06/01 12:56:21;;;;;;;3.58;2.17;;;18.50;84.80;;;;;;4980509;28;20181;-76
2022/06/01 12:58:50;;;;;;;4.78;2.35;;;18.80;84.00;;;;;;5019140;28;20041;-75
2022/06/01 13:01:18;;;;;;;3.88;2.53;;;18.90;84.30;;;;;;5029656;28;20037;-75
2022/06/01 13:03:49;;;;;;;5.00;2.17;;;19.10;84.30;;;;;;5028972;28;20033;-75
2022/06/01 13:06:21;;;;;;;4.72;2.20;;;19.40;83.80;;;;;;5026342;28;20777;-75
2022/06/01 13:08:57;;;;;;;2.05;1.30;;;19.60;80.20;;;;;;5026901;28;20684;-74
2022/06/01 13:11:29;;;;;;;1.17;0.90;;;19.70;76.50;;;;;;5029064;28;20060;-76
2022/06/01 13:14:04;;;;;;;3.42;1.40;;;19.60;72.30;;;;;;5027837;28;20865;-75
2022/06/01 13:16:44;;;;;;;2.63;1.10;;;19.40;74.50;;;;;;5022666;28;20045;-76
2022/06/01 13:19:26;;;;;;;4.80;1.10;;;19.30;75.80;;;;;;5023266;28;20037;-76
2022/06/01 13:22:29;;;;;;;5.72;1.60;;;18.90;74.70;;;;;;5026793;28;20079;-72
2022/06/01 13:25:15;;;;;;;7.13;1.40;;;18.60;79.50;;;;;;5009999;28;20114;-75
2022/06/01 13:27:43;;;;;;;2.78;1.40;;;18.20;82.70;;;;;;5024691;28;20191;-74
2022/06/01 13:30:11;;;;;;;3.08;1.58;;;18.00;84.50;;;;;;5026624;28;20118;-75
2022/06/01 13:32:43;;;;;;;2.95;1.65;;;17.90;86.10;;;;;;5029270;28;20037;-76
2022/06/01 13:35:25;;;;;;;1.38;1.27;;;17.80;86.60;;;;;;5031710;28;20472;-75
2022/06/01 13:37:56;;;;;;;2.72;1.90;;;17.70;86.90;;;;;;5022672;28;20485;-74
2022/06/01 13:40:21;;;;;;;2.38;1.85;;;17.80;85.60;;;;;;5033215;28;20065;-76
2022/06/01 13:42:58;;;;;;;2.65;1.65;;;17.90;84.10;;;;;;5021861;28;20136;-76